createdAt,value
2023-10-02T00:00:43.504Z,507.90
2023-10-02T00:03:12.332Z,507.27
2023-10-02T00:05:52.076Z,505.43
2023-10-02T00:08:39.128Z,505.40
2023-10-02T00:11:33.868Z,503.88
2023-10-02T00:14:20.571Z,505.20
2023-10-02T00:17:02.335Z,499.83
2023-10-02T00:19:34.205Z,500.60
2023-10-02T00:22:06.749Z,498.60
2023-10-02T00:24:36.567Z,500.58
2023-10-02T00:27:03.849Z,507.17
2023-10-02T00:29:32.176Z,502.88
2023-10-02T00:32:00.234Z,500.53
2023-10-02T00:34:36.968Z,498.45
2023-10-02T00:37:14.785Z,495.05
2023-10-02T00:39:42.660Z,491.75
2023-10-02T00:42:25.608Z,497.45
2023-10-02T00:45:13.575Z,484.85
2023-10-02T00:47:43.955Z,469.33
2023-10-02T00:50:18.158Z,484.45
2023-10-02T00:52:48.854Z,483.13
2023-10-02T00:55:18.497Z,491.30
2023-10-02T00:57:46.881Z,490.48
2023-10-02T01:00:20.973Z,486.05
2023-10-02T01:02:49.456Z,482.42
2023-10-02T01:05:31.439Z,487.52
2023-10-02T01:08:04.659Z,466.10
2023-10-02T01:10:31.938Z,469.70
2023-10-02T01:13:03.177Z,462.90
2023-10-02T01:15:48.689Z,474.58
2023-10-02T01:18:23.003Z,465.90
2023-10-02T01:20:54.620Z,463.55
2023-10-02T01:23:24.215Z,452.15
2023-10-02T01:25:51.699Z,447.40
2023-10-02T01:28:26.341Z,464.95
2023-10-02T01:30:56.463Z,453.90
2023-10-02T01:33:27.873Z,331.75
2023-10-02T01:36:01.079Z,439.75
2023-10-02T01:38:28.615Z,402.85
2023-10-02T01:41:03.150Z,441.60
2023-10-02T01:43:33.316Z,428.30
2023-10-02T01:46:04.537Z,441.45
2023-10-02T01:48:48.027Z,454.52
2023-10-02T01:51:22.322Z,452.17
2023-10-02T01:53:50.978Z,473.88
2023-10-02T01:56:18.807Z,468.40
2023-10-02T01:58:49.040Z,473.67
2023-10-02T02:01:21.847Z,451.70
2023-10-02T02:03:51.300Z,485.33
2023-10-02T02:06:23.028Z,495.75
2023-10-02T02:08:54.153Z,493.30
2023-10-02T02:11:22.483Z,464.58
2023-10-02T02:13:50.870Z,485.35
2023-10-02T02:16:23.448Z,440.13
2023-10-02T02:18:57.249Z,469.25
2023-10-02T02:21:25.325Z,463.52
2023-10-02T02:24:08.111Z,472.87
2023-10-02T02:26:37.536Z,449.63
2023-10-02T02:29:05.238Z,466.65
2023-10-02T02:31:33.173Z,453.63
2023-10-02T02:34:04.422Z,472.63
2023-10-02T02:36:36.660Z,453.25
2023-10-02T02:39:17.965Z,484.33
2023-10-02T02:41:46.433Z,475.02
2023-10-02T02:44:32.814Z,469.70
2023-10-02T02:47:00.865Z,475.48
2023-10-02T02:49:30.495Z,429.90
2023-10-02T02:51:57.672Z,460.52
2023-10-02T02:54:29.306Z,446.07
2023-10-02T02:57:01.789Z,434.83
2023-10-02T02:59:29.260Z,425.00
2023-10-02T03:02:10.555Z,406.38
2023-10-02T03:04:43.344Z,451.33
2023-10-02T03:07:18.969Z,468.37
2023-10-02T03:09:46.424Z,474.90
2023-10-02T03:12:14.576Z,478.08
2023-10-02T03:14:41.766Z,492.33
2023-10-02T03:17:29.736Z,497.77
2023-10-02T03:19:58.559Z,492.45
2023-10-02T03:22:28.814Z,489.63
2023-10-02T03:25:21.804Z,504.25
2023-10-02T03:27:49.616Z,503.33
2023-10-02T03:30:36.512Z,500.25
2023-10-02T03:33:05.065Z,494.53
2023-10-02T03:35:40.594Z,496.55
2023-10-02T03:38:07.837Z,461.27
2023-10-02T03:40:36.091Z,486.13
2023-10-02T03:43:20.383Z,483.73
2023-10-02T03:45:52.215Z,483.50
2023-10-02T03:48:19.429Z,462.33
2023-10-02T03:50:46.499Z,458.40
2023-10-02T03:53:14.164Z,457.83
2023-10-02T03:55:42.066Z,471.92
2023-10-02T03:58:10.470Z,468.92
2023-10-02T04:00:52.047Z,480.95
2023-10-02T04:03:20.013Z,483.83
2023-10-02T04:05:47.313Z,448.07
2023-10-02T04:08:16.182Z,464.20
2023-10-02T04:10:57.956Z,456.27
2023-10-02T04:13:35.765Z,471.77
2023-10-02T04:16:22.779Z,474.63
2023-10-02T04:19:03.690Z,489.08
2023-10-02T04:21:34.396Z,477.52
2023-10-02T04:24:02.171Z,450.60
2023-10-02T04:26:34.725Z,458.98
2023-10-02T04:29:20.974Z,439.48
2023-10-02T04:32:05.995Z,443.25
2023-10-02T04:34:37.940Z,448.98
2023-10-02T04:37:21.374Z,456.95
2023-10-02T04:40:15.710Z,460.27
2023-10-02T04:43:20.171Z,457.42
2023-10-02T04:45:48.253Z,462.98
2023-10-02T04:48:19.715Z,451.95
2023-10-02T04:50:47.088Z,461.52
2023-10-02T04:53:23.475Z,463.83
2023-10-02T04:56:10.283Z,473.25
2023-10-02T04:58:50.782Z,461.90
2023-10-02T05:01:30.960Z,467.30
2023-10-02T05:04:04.255Z,469.70
2023-10-02T05:06:45.449Z,473.85
2023-10-02T05:09:19.629Z,474.40
2023-10-02T05:11:53.475Z,478.27
2023-10-02T05:14:34.619Z,471.75
2023-10-02T05:17:19.488Z,479.15
2023-10-02T05:19:57.896Z,468.80
2023-10-02T05:22:26.916Z,470.05
2023-10-02T05:24:59.862Z,468.25
2023-10-02T05:27:31.526Z,472.40
2023-10-02T05:30:02.955Z,432.25
2023-10-02T05:32:33.165Z,444.10
2023-10-02T05:35:15.580Z,440.90
2023-10-02T05:37:55.890Z,440.55
2023-10-02T05:40:23.398Z,437.02
2023-10-02T05:43:06.514Z,427.75
2023-10-02T05:45:46.439Z,421.75
2023-10-02T05:48:26.665Z,410.48
2023-10-02T05:50:54.452Z,409.03
2023-10-02T05:53:36.088Z,406.70
2023-10-02T05:56:07.174Z,403.30
2023-10-02T05:58:38.081Z,405.60
2023-10-02T06:01:08.644Z,407.77
2023-10-02T06:03:37.064Z,401.05
2023-10-02T06:06:19.233Z,403.42
2023-10-02T06:08:49.463Z,412.20
2023-10-02T06:11:35.373Z,414.63
2023-10-02T06:14:12.135Z,403.73
2023-10-02T06:16:41.137Z,401.30
2023-10-02T06:19:15.740Z,394.63
2023-10-02T06:21:47.495Z,379.35
2023-10-02T06:24:18.457Z,349.13
2023-10-02T06:26:56.940Z,313.08
2023-10-02T06:29:24.326Z,295.20
2023-10-02T06:31:52.548Z,314.58
2023-10-02T06:34:19.992Z,371.45
2023-10-02T06:37:03.490Z,432.20
2023-10-02T06:39:36.578Z,541.65
2023-10-02T06:42:07.352Z,587.80
2023-10-02T06:44:53.937Z,604.38
2023-10-02T06:47:42.881Z,658.42
2023-10-02T06:50:28.998Z,690.95
2023-10-02T06:52:56.876Z,722.80
2023-10-02T06:55:26.470Z,707.70
2023-10-02T06:57:54.074Z,738.28
2023-10-02T07:00:22.853Z,748.15
2023-10-02T07:02:59.709Z,697.00
2023-10-02T07:05:28.404Z,692.03
2023-10-02T07:08:02.765Z,706.83
2023-10-02T07:10:42.903Z,716.97
2023-10-02T07:13:25.792Z,737.13
2023-10-02T07:15:57.332Z,769.85
2023-10-02T07:18:39.420Z,805.20
2023-10-02T07:21:10.113Z,807.97
2023-10-02T07:23:40.245Z,840.50
2023-10-02T07:26:14.708Z,829.90
2023-10-02T07:28:54.152Z,829.58
2023-10-02T07:31:21.714Z,814.90
2023-10-02T07:33:48.866Z,829.58
2023-10-02T07:36:16.909Z,808.53
2023-10-02T07:38:47.483Z,819.17
2023-10-02T07:41:29.446Z,810.97
2023-10-02T07:44:08.282Z,799.65
2023-10-02T07:46:37.873Z,769.85
2023-10-02T07:49:06.774Z,790.95
2023-10-02T07:51:37.691Z,770.92
2023-10-02T07:54:09.027Z,812.13
2023-10-02T07:56:36.931Z,792.90
2023-10-02T07:59:04.952Z,793.85
2023-10-02T08:01:35.018Z,797.13
2023-10-02T08:04:03.456Z,812.35
2023-10-02T08:07:01.898Z,812.40
2023-10-02T08:09:39.601Z,866.72
2023-10-02T08:12:09.475Z,853.47
2023-10-02T08:14:41.388Z,890.95
2023-10-02T08:17:36.502Z,848.75
2023-10-02T08:20:25.925Z,850.50
2023-10-02T08:22:53.729Z,848.10
2023-10-02T08:25:27.290Z,823.40
2023-10-02T08:27:57.322Z,822.53
2023-10-02T08:30:36.410Z,833.03
2023-10-02T08:33:07.845Z,796.47
2023-10-02T08:35:47.424Z,773.63
2023-10-02T08:38:27.747Z,778.97
2023-10-02T08:40:58.982Z,762.92
2023-10-02T08:43:29.970Z,813.13
2023-10-02T08:46:01.088Z,803.30
2023-10-02T08:48:33.154Z,852.97
2023-10-02T08:51:00.682Z,860.72
2023-10-02T08:53:30.298Z,849.60
2023-10-02T08:56:22.793Z,849.80
2023-10-02T08:59:09.157Z,850.15
2023-10-02T09:01:36.386Z,873.17
2023-10-02T09:04:27.167Z,848.30
2023-10-02T09:07:13.014Z,845.83
2023-10-02T09:09:46.318Z,832.57
2023-10-02T09:12:18.413Z,904.17
2023-10-02T09:14:45.677Z,800.03
2023-10-02T09:17:19.462Z,777.20
2023-10-02T09:20:00.069Z,939.13
2023-10-02T09:22:28.809Z,915.65
2023-10-02T09:25:10.382Z,903.67
2023-10-02T09:27:42.728Z,866.38
2023-10-02T09:30:42.148Z,873.78
2023-10-02T09:33:32.316Z,881.72
2023-10-02T09:36:23.411Z,828.33
2023-10-02T09:38:54.989Z,852.90
2023-10-02T09:41:24.607Z,858.57
2023-10-02T09:43:52.234Z,878.75
2023-10-02T09:46:29.498Z,905.65
2023-10-02T09:49:05.729Z,877.25
2023-10-02T09:52:10.498Z,880.47
2023-10-02T09:54:42.212Z,929.88
2023-10-02T09:57:14.774Z,935.07
2023-10-02T09:59:48.697Z,973.30
2023-10-02T10:02:23.060Z,946.97
2023-10-02T10:05:12.084Z,955.40
2023-10-02T10:08:01.004Z,968.08
2023-10-02T10:10:48.697Z,923.13
2023-10-02T10:13:35.101Z,931.03
2023-10-02T10:16:20.645Z,933.90
2023-10-02T10:19:05.963Z,916.45
2023-10-02T10:21:57.746Z,890.90
2023-10-02T10:24:36.625Z,900.88
2023-10-02T10:27:03.831Z,999.90
2023-10-02T10:29:42.588Z,939.55
2023-10-02T10:32:19.890Z,999.90
2023-10-02T10:35:13.400Z,999.90
2023-10-02T10:37:42.321Z,940.85
2023-10-02T10:40:32.463Z,956.42
2023-10-02T10:43:06.561Z,985.90
2023-10-02T10:45:35.119Z,955.13
2023-10-02T10:48:03.134Z,928.58
2023-10-02T10:50:31.593Z,920.20
2023-10-02T10:53:22.707Z,938.57
2023-10-02T10:55:56.481Z,932.40
2023-10-02T10:58:32.607Z,957.42
2023-10-02T11:01:00.021Z,981.47
2023-10-02T11:03:27.956Z,923.80
2023-10-02T11:06:02.699Z,911.50
2023-10-02T11:08:31.438Z,952.17
2023-10-02T11:11:10.441Z,990.00
2023-10-02T11:13:57.519Z,999.90
2023-10-02T11:16:32.154Z,999.90
2023-10-02T11:19:22.301Z,728.27
2023-10-02T11:22:02.402Z,966.17
2023-10-02T11:24:30.108Z,998.65
2023-10-02T11:27:12.245Z,999.90
2023-10-02T11:29:42.363Z,999.90
2023-10-02T11:32:23.614Z,999.90
2023-10-02T11:34:52.113Z,999.90
2023-10-02T11:37:20.392Z,999.90
2023-10-02T11:39:51.838Z,999.90
2023-10-02T11:42:22.553Z,999.90
2023-10-02T11:44:49.923Z,999.90
2023-10-02T11:47:17.275Z,154.05
2023-10-02T11:49:46.030Z,6.50
2023-10-02T11:52:13.212Z,183.45
2023-10-02T11:54:43.767Z,999.90
2023-10-02T11:57:14.770Z,999.90
2023-10-02T11:59:43.591Z,999.90
2023-10-02T12:02:14.854Z,999.90
2023-10-02T12:04:42.080Z,999.90
2023-10-02T12:07:09.260Z,999.90
2023-10-02T12:09:39.699Z,999.90
2023-10-02T12:12:12.441Z,999.90
2023-10-02T12:14:41.097Z,999.90
2023-10-02T12:17:12.963Z,999.90
2023-10-02T12:19:41.289Z,980.30
2023-10-02T12:22:10.221Z,999.90
2023-10-02T12:24:38.741Z,999.90
2023-10-02T12:27:12.061Z,999.90
2023-10-02T12:29:39.817Z,999.90
2023-10-02T12:32:08.854Z,999.90
2023-10-02T12:34:35.967Z,999.90
2023-10-02T12:37:04.914Z,999.90
2023-10-02T12:39:34.440Z,999.90
2023-10-02T12:42:04.136Z,999.90
2023-10-02T12:44:32.050Z,999.90
2023-10-02T12:46:59.635Z,999.90
2023-10-02T12:49:26.913Z,999.90
2023-10-02T12:51:54.201Z,999.90
2023-10-02T12:54:21.493Z,999.90
2023-10-02T12:56:48.924Z,999.90
2023-10-02T12:59:16.997Z,999.90
2023-10-02T13:01:45.377Z,999.90
2023-10-02T13:04:15.779Z,999.90
2023-10-02T13:06:46.369Z,999.90
2023-10-02T13:09:17.015Z,999.90
2023-10-02T13:11:48.667Z,999.90
2023-10-02T13:14:19.953Z,999.90
2023-10-02T13:16:49.568Z,999.90
2023-10-02T13:19:17.664Z,992.75
2023-10-02T13:21:46.125Z,956.38
2023-10-02T13:24:17.124Z,965.33
2023-10-02T13:26:44.882Z,939.80
2023-10-02T13:29:12.417Z,945.92
2023-10-02T13:31:40.001Z,949.13
2023-10-02T13:34:10.713Z,991.60
2023-10-02T13:36:38.499Z,992.78
2023-10-02T13:39:06.091Z,965.70
2023-10-02T13:41:35.928Z,982.10
2023-10-02T13:44:05.406Z,999.90
2023-10-02T13:46:36.159Z,999.90
2023-10-02T13:49:06.434Z,999.90
2023-10-02T13:51:33.620Z,999.90
2023-10-02T13:54:00.737Z,999.90
2023-10-02T13:56:30.910Z,999.90
2023-10-02T13:58:58.510Z,999.90
2023-10-02T14:01:26.866Z,999.90
2023-10-02T14:03:54.808Z,999.90
2023-10-02T14:06:24.508Z,999.90
2023-10-02T14:08:58.542Z,999.90
2023-10-02T14:11:26.829Z,985.65
2023-10-02T14:14:01.006Z,976.13
2023-10-02T14:16:28.998Z,981.33
2023-10-02T14:18:59.316Z,929.60
2023-10-02T14:21:27.346Z,953.77
2023-10-02T14:23:55.647Z,963.90
2023-10-02T14:26:24.154Z,971.40
2023-10-02T14:28:59.643Z,965.83
2023-10-02T14:31:33.976Z,974.15
2023-10-02T14:34:02.099Z,999.90
2023-10-02T14:36:30.282Z,999.90
2023-10-02T14:38:58.369Z,999.90
2023-10-02T14:41:27.721Z,999.90
2023-10-02T14:43:55.578Z,999.90
2023-10-02T14:46:25.606Z,999.90
2023-10-02T14:48:54.617Z,999.90
2023-10-02T14:51:23.931Z,999.90
2023-10-02T14:53:51.246Z,999.90
2023-10-02T14:56:18.474Z,999.90
2023-10-02T14:58:50.805Z,999.90
2023-10-02T15:01:21.096Z,977.47
2023-10-02T15:03:49.453Z,999.90
2023-10-02T15:06:16.921Z,999.90
2023-10-02T15:08:47.238Z,999.90
2023-10-02T15:11:16.118Z,999.90
2023-10-02T15:13:44.171Z,986.42
2023-10-02T15:16:13.065Z,986.75
2023-10-02T15:18:41.112Z,989.73
2023-10-02T15:21:09.206Z,930.42
2023-10-02T15:23:43.891Z,936.50
2023-10-02T15:26:16.330Z,931.45
2023-10-02T15:28:49.616Z,999.90
2023-10-02T15:31:18.932Z,999.90
2023-10-02T15:33:49.118Z,987.92
2023-10-02T15:36:18.815Z,987.15
2023-10-02T15:38:50.150Z,933.60
2023-10-02T15:41:27.615Z,871.33
2023-10-02T15:43:54.924Z,855.03
2023-10-02T15:46:22.132Z,850.60
2023-10-02T15:48:50.334Z,872.78
2023-10-02T15:51:23.475Z,827.58
2023-10-02T15:53:51.606Z,823.72
2023-10-02T15:56:21.273Z,825.70
2023-10-02T15:58:49.034Z,829.13
2023-10-02T16:01:19.128Z,837.58
2023-10-02T16:03:48.102Z,886.70
2023-10-02T16:06:26.676Z,857.17
2023-10-02T16:08:54.005Z,875.72
2023-10-02T16:11:24.664Z,857.75
2023-10-02T16:13:53.481Z,834.17
2023-10-02T16:16:23.898Z,839.45
2023-10-02T16:18:55.085Z,812.75
2023-10-02T16:21:22.742Z,811.58
2023-10-02T16:23:50.441Z,803.58
2023-10-02T16:26:21.733Z,788.57
2023-10-02T16:28:52.471Z,776.55
2023-10-02T16:31:26.946Z,781.43
2023-10-02T16:33:54.338Z,781.88
2023-10-02T16:36:28.111Z,741.80
2023-10-02T16:39:05.937Z,740.13
2023-10-02T16:41:34.882Z,730.72
2023-10-02T16:44:05.410Z,731.30
2023-10-02T16:46:36.797Z,744.35
2023-10-02T16:49:04.174Z,769.33
2023-10-02T16:51:31.445Z,787.33
2023-10-02T16:53:58.839Z,760.42
2023-10-02T16:56:26.120Z,727.33
2023-10-02T16:58:53.491Z,697.73
2023-10-02T17:01:23.541Z,702.85
2023-10-02T17:03:56.682Z,687.88
2023-10-02T17:06:23.995Z,693.35
2023-10-02T17:08:53.406Z,693.85
2023-10-02T17:11:24.224Z,690.70
2023-10-02T17:13:51.367Z,682.65
2023-10-02T17:16:18.502Z,680.50
2023-10-02T17:18:45.837Z,676.30
2023-10-02T17:21:15.391Z,667.10
2023-10-02T17:23:44.056Z,667.05
2023-10-02T17:26:12.242Z,662.70
2023-10-02T17:28:44.243Z,664.35
2023-10-02T17:31:11.902Z,655.95
2023-10-02T17:33:43.306Z,651.92
2023-10-02T17:36:10.927Z,656.38
2023-10-02T17:38:38.162Z,648.60
2023-10-02T17:41:05.497Z,623.40
2023-10-02T17:43:37.806Z,625.10
2023-10-02T17:46:07.755Z,609.97
2023-10-02T17:48:35.494Z,627.33
2023-10-02T17:51:02.694Z,611.55
2023-10-02T17:53:29.853Z,599.83
2023-10-02T17:55:59.882Z,606.97
2023-10-02T17:58:30.564Z,631.38
2023-10-02T18:01:05.025Z,620.53
2023-10-02T18:03:32.870Z,632.30
2023-10-02T18:06:01.573Z,639.22
2023-10-02T18:08:31.944Z,640.75
2023-10-02T18:10:59.141Z,642.53
2023-10-02T18:13:26.269Z,638.38
2023-10-02T18:15:54.845Z,621.50
2023-10-02T18:18:22.865Z,607.28
2023-10-02T18:20:52.789Z,614.83
2023-10-02T18:23:19.971Z,621.35
2023-10-02T18:25:54.507Z,624.50
2023-10-02T18:28:24.504Z,610.35
2023-10-02T18:30:51.760Z,614.72
2023-10-02T18:33:23.836Z,596.65
2023-10-02T18:35:51.794Z,599.55
2023-10-02T18:38:18.965Z,600.13
2023-10-02T18:40:53.911Z,585.25
2023-10-02T18:43:20.938Z,588.85
2023-10-02T18:45:48.293Z,577.38
2023-10-02T18:48:16.363Z,567.42
2023-10-02T18:50:43.586Z,575.83
2023-10-02T18:53:10.998Z,535.50
2023-10-02T18:55:38.214Z,556.80
2023-10-02T18:58:06.754Z,562.10
2023-10-02T19:00:33.954Z,557.47
2023-10-02T19:03:02.098Z,561.30
2023-10-02T19:05:29.844Z,552.10
2023-10-02T19:07:57.286Z,531.20
2023-10-02T19:10:25.042Z,548.58
2023-10-02T19:12:52.202Z,549.47
2023-10-02T19:15:19.479Z,547.47
2023-10-02T19:17:46.643Z,553.55
2023-10-02T19:20:14.425Z,541.67
2023-10-02T19:22:42.770Z,521.65
2023-10-02T19:25:10.653Z,516.42
2023-10-02T19:27:37.828Z,524.15
2023-10-02T19:30:05.208Z,522.75
2023-10-02T19:32:34.546Z,545.28
2023-10-02T19:35:03.944Z,537.00
2023-10-02T19:37:34.116Z,532.43
2023-10-02T19:40:01.304Z,554.38
2023-10-02T19:42:28.520Z,544.97
2023-10-02T19:44:55.838Z,532.03
2023-10-02T19:47:23.027Z,528.40
2023-10-02T19:49:50.136Z,524.97
2023-10-02T19:52:24.575Z,520.57
2023-10-02T19:54:52.649Z,513.88
2023-10-02T19:57:19.777Z,515.80
2023-10-02T19:59:52.146Z,512.38
2023-10-02T20:02:19.456Z,519.80
2023-10-02T20:04:47.568Z,520.92
2023-10-02T20:07:16.272Z,528.13
2023-10-02T20:09:46.222Z,536.92
2023-10-02T20:12:13.673Z,534.03
2023-10-02T20:14:40.855Z,536.05
2023-10-02T20:17:08.073Z,537.77
2023-10-02T20:19:36.122Z,539.83
2023-10-02T20:22:07.578Z,538.97
2023-10-02T20:24:34.747Z,533.17
2023-10-02T20:27:02.008Z,524.58
2023-10-02T20:29:29.205Z,521.77
2023-10-02T20:31:56.380Z,515.40
2023-10-02T20:34:36.483Z,525.80
2023-10-02T20:37:05.257Z,525.92
2023-10-02T20:39:32.708Z,531.43
2023-10-02T20:42:00.031Z,533.55
2023-10-02T20:44:27.178Z,523.58
2023-10-02T20:47:11.654Z,519.25
2023-10-02T20:49:41.608Z,511.73
2023-10-02T20:52:08.736Z,507.73
2023-10-02T20:54:35.963Z,505.13
2023-10-02T20:57:04.182Z,498.70
2023-10-02T20:59:31.387Z,510.65
2023-10-02T21:01:58.566Z,509.65
2023-10-02T21:04:27.937Z,515.22
2023-10-02T21:06:55.276Z,512.50
2023-10-02T21:09:23.677Z,514.80
2023-10-02T21:11:53.858Z,517.30
2023-10-02T21:14:24.205Z,517.45
2023-10-02T21:16:51.685Z,522.50
2023-10-02T21:19:18.885Z,514.10
2023-10-02T21:21:52.783Z,502.23
2023-10-02T21:24:22.392Z,508.90
2023-10-02T21:26:50.401Z,508.73
2023-10-02T21:29:17.744Z,503.27
2023-10-02T21:31:44.924Z,488.90
2023-10-02T21:34:15.054Z,466.70
2023-10-02T21:36:45.056Z,467.60
2023-10-02T21:39:21.707Z,461.25
2023-10-02T21:41:48.903Z,459.58
2023-10-02T21:44:16.106Z,453.38
2023-10-02T21:46:43.740Z,451.27
2023-10-02T21:49:12.233Z,434.67
2023-10-02T21:51:39.820Z,442.75
2023-10-02T21:54:07.111Z,424.52
2023-10-02T21:56:36.033Z,412.58
2023-10-02T21:59:04.352Z,415.33
2023-10-02T22:01:31.784Z,432.57
2023-10-02T22:03:59.161Z,458.77
2023-10-02T22:06:28.777Z,465.02
2023-10-02T22:08:55.927Z,456.37
2023-10-02T22:11:28.324Z,438.52
2023-10-02T22:13:55.484Z,445.00
2023-10-02T22:16:25.937Z,466.88
2023-10-02T22:18:53.299Z,445.90
2023-10-02T22:21:25.019Z,439.17
2023-10-02T22:23:55.239Z,432.48
2023-10-02T22:26:25.178Z,435.33
2023-10-02T22:28:52.338Z,440.83
2023-10-02T22:31:19.860Z,444.80
2023-10-02T22:33:48.294Z,451.15
2023-10-02T22:36:18.412Z,443.63
2023-10-02T22:38:49.145Z,434.63
2023-10-02T22:41:16.422Z,446.88
2023-10-02T22:43:43.532Z,435.98
2023-10-02T22:46:12.600Z,439.85
2023-10-02T22:48:42.677Z,434.48
2023-10-02T22:51:09.817Z,428.25
2023-10-02T22:53:37.984Z,422.67
2023-10-02T22:56:05.982Z,464.38
2023-10-02T22:58:33.254Z,435.33
2023-10-02T23:01:00.658Z,419.83
2023-10-02T23:03:28.781Z,434.40
2023-10-02T23:05:56.788Z,421.63
2023-10-02T23:08:24.142Z,408.10
2023-10-02T23:10:52.458Z,397.20
2023-10-02T23:13:20.312Z,399.15
2023-10-02T23:15:47.740Z,395.33
2023-10-02T23:18:15.084Z,399.52
2023-10-02T23:20:45.820Z,399.57
2023-10-02T23:23:15.173Z,410.30
2023-10-02T23:25:42.463Z,419.10
2023-10-02T23:28:09.647Z,393.35
2023-10-02T23:30:37.931Z,424.05
2023-10-02T23:33:12.693Z,430.17
2023-10-02T23:35:44.430Z,424.38
2023-10-02T23:38:15.778Z,437.73
2023-10-02T23:40:45.628Z,430.90
2023-10-02T23:43:15.395Z,436.27
2023-10-02T23:45:46.136Z,440.13
2023-10-02T23:48:17.619Z,439.00
2023-10-02T23:50:44.855Z,427.83
2023-10-02T23:53:16.464Z,388.13
2023-10-02T23:55:45.429Z,420.50
2023-10-02T23:58:12.892Z,411.23
